sensor_id;sensor_type;location;lat;lon;timestamp;temperature;humidity
11764;DHT22;5939;56.522;14.950;2023-11-18T00:00:43;3.60;99.90
11764;DHT22;5939;56.522;14.950;2023-11-18T00:03:09;3.60;99.90
11764;DHT22;5939;56.522;14.950;2023-11-18T00:05:35;3.70;99.90
11764;DHT22;5939;56.522;14.950;2023-11-18T00:08:01;3.70;99.90
11764;DHT22;5939;56.522;14.950;2023-11-18T00:10:27;3.70;99.90
11764;DHT22;5939;56.522;14.950;2023-11-18T00:12:52;3.70;99.90
11764;DHT22;5939;56.522;14.950;2023-11-18T00:15:19;3.70;99.90
11764;DHT22;5939;56.522;14.950;2023-11-18T00:17:45;3.70;99.90
11764;DHT22;5939;56.522;14.950;2023-11-18T00:20:11;3.70;99.90
11764;DHT22;5939;56.522;14.950;2023-11-18T00:22:39;3.70;99.90
11764;DHT22;5939;56.522;14.950;2023-11-18T00:25:06;3.70;99.90
11764;DHT22;5939;56.522;14.950;2023-11-18T00:27:35;3.60;99.90
11764;DHT22;5939;56.522;14.950;2023-11-18T00:30:03;3.70;99.90
11764;DHT22;5939;56.522;14.950;2023-11-18T00:32:31;3.70;99.90
11764;DHT22;5939;56.522;14.950;2023-11-18T00:34:57;3.70;99.90
11764;DHT22;5939;56.522;14.950;2023-11-18T00:37:23;3.70;99.90
11764;DHT22;5939;56.522;14.950;2023-11-18T00:39:48;3.70;99.90
11764;DHT22;5939;56.522;14.950;2023-11-18T00:42:14;3.70;99.90
11764;DHT22;5939;56.522;14.950;2023-11-18T00:44:41;3.70;99.90
11764;DHT22;5939;56.522;14.950;2023-11-18T00:47:07;3.70;99.90
11764;DHT22;5939;56.522;14.950;2023-11-18T00:49:33;3.70;99.90
11764;DHT22;5939;56.522;14.950;2023-11-18T00:51:59;3.70;99.90
11764;DHT22;5939;56.522;14.950;2023-11-18T00:54:25;3.70;99.90
11764;DHT22;5939;56.522;14.950;2023-11-18T00:56:50;3.70;99.90
11764;DHT22;5939;56.522;14.950;2023-11-18T00:59:16;3.70;99.90
11764;DHT22;5939;56.522;14.950;2023-11-18T01:01:42;3.70;99.90
11764;DHT22;5939;56.522;14.950;2023-11-18T01:04:07;3.70;99.90
11764;DHT22;5939;56.522;14.950;2023-11-18T01:06:34;3.70;99.90
11764;DHT22;5939;56.522;14.950;2023-11-18T01:09:00;3.70;99.90
11764;DHT22;5939;56.522;14.950;2023-11-18T01:11:26;3.70;99.90
11764;DHT22;5939;56.522;14.950;2023-11-18T01:13:52;3.70;99.90
11764;DHT22;5939;56.522;14.950;2023-11-18T01:16:21;3.70;99.90
11764;DHT22;5939;56.522;14.950;2023-11-18T01:18:47;3.70;99.90
11764;DHT22;5939;56.522;14.950;2023-11-18T01:21:13;3.70;99.90
11764;DHT22;5939;56.522;14.950;2023-11-18T01:23:39;3.60;99.90
11764;DHT22;5939;56.522;14.950;2023-11-18T01:26:10;3.60;99.90
11764;DHT22;5939;56.522;14.950;2023-11-18T01:28:37;3.60;99.90
11764;DHT22;5939;56.522;14.950;2023-11-18T01:31:08;3.60;99.90
11764;DHT22;5939;56.522;14.950;2023-11-18T01:33:38;3.60;99.90
11764;DHT22;5939;56.522;14.950;2023-11-18T01:36:10;3.60;99.90
11764;DHT22;5939;56.522;14.950;2023-11-18T01:38:37;3.60;99.90
11764;DHT22;5939;56.522;14.950;2023-11-18T01:41:06;3.60;99.90
11764;DHT22;5939;56.522;14.950;2023-11-18T01:43:33;3.60;99.90
11764;DHT22;5939;56.522;14.950;2023-11-18T01:46:04;3.70;99.90
11764;DHT22;5939;56.522;14.950;2023-11-18T01:48:33;3.60;99.90
11764;DHT22;5939;56.522;14.950;2023-11-18T01:50:59;3.60;99.90
11764;DHT22;5939;56.522;14.950;2023-11-18T01:53:26;3.70;99.90
11764;DHT22;5939;56.522;14.950;2023-11-18T01:55:53;3.70;99.90
11764;DHT22;5939;56.522;14.950;2023-11-18T01:58:20;3.70;99.90
11764;DHT22;5939;56.522;14.950;2023-11-18T02:00:50;3.70;99.90
11764;DHT22;5939;56.522;14.950;2023-11-18T02:03:16;3.70;99.90
11764;DHT22;5939;56.522;14.950;2023-11-18T02:05:43;3.70;99.90
11764;DHT22;5939;56.522;14.950;2023-11-18T02:08:10;3.70;99.90
11764;DHT22;5939;56.522;14.950;2023-11-18T02:10:47;3.70;99.90
11764;DHT22;5939;56.522;14.950;2023-11-18T02:13:22;3.70;99.90
11764;DHT22;5939;56.522;14.950;2023-11-18T02:15:52;3.70;99.90
11764;DHT22;5939;56.522;14.950;2023-11-18T02:18:19;3.70;99.90
11764;DHT22;5939;56.522;14.950;2023-11-18T02:20:46;3.70;99.90
11764;DHT22;5939;56.522;14.950;2023-11-18T02:23:14;3.60;99.90
11764;DHT22;5939;56.522;14.950;2023-11-18T02:25:46;3.60;99.90
11764;DHT22;5939;56.522;14.950;2023-11-18T02:28:13;3.60;99.90
11764;DHT22;5939;56.522;14.950;2023-11-18T02:30:40;3.60;99.90
11764;DHT22;5939;56.522;14.950;2023-11-18T02:33:19;3.70;99.90
11764;DHT22;5939;56.522;14.950;2023-11-18T02:35:54;3.70;99.90
11764;DHT22;5939;56.522;14.950;2023-11-18T02:38:30;3.70;99.90
11764;DHT22;5939;56.522;14.950;2023-11-18T02:41:04;3.70;99.90
11764;DHT22;5939;56.522;14.950;2023-11-18T02:43:32;3.70;99.90
11764;DHT22;5939;56.522;14.950;2023-11-18T02:45:59;3.70;99.90
11764;DHT22;5939;56.522;14.950;2023-11-18T02:48:26;3.70;99.90
11764;DHT22;5939;56.522;14.950;2023-11-18T02:50:53;3.70;99.90
11764;DHT22;5939;56.522;14.950;2023-11-18T02:53:18;3.70;99.90
11764;DHT22;5939;56.522;14.950;2023-11-18T02:55:44;3.70;99.90
11764;DHT22;5939;56.522;14.950;2023-11-18T02:58:09;3.60;99.90
11764;DHT22;5939;56.522;14.950;2023-11-18T03:00:35;3.70;99.90
11764;DHT22;5939;56.522;14.950;2023-11-18T03:03:03;3.60;99.90
11764;DHT22;5939;56.522;14.950;2023-11-18T03:05:30;3.70;99.90
11764;DHT22;5939;56.522;14.950;2023-11-18T03:07:55;3.60;99.90
11764;DHT22;5939;56.522;14.950;2023-11-18T03:10:23;3.70;99.90
11764;DHT22;5939;56.522;14.950;2023-11-18T03:12:50;3.70;99.90
11764;DHT22;5939;56.522;14.950;2023-11-18T03:15:16;3.70;99.90
11764;DHT22;5939;56.522;14.950;2023-11-18T03:17:49;3.60;99.90
11764;DHT22;5939;56.522;14.950;2023-11-18T03:20:20;3.70;99.90
11764;DHT22;5939;56.522;14.950;2023-11-18T03:22:46;3.60;99.90
11764;DHT22;5939;56.522;14.950;2023-11-18T03:25:13;3.60;99.90
11764;DHT22;5939;56.522;14.950;2023-11-18T03:27:39;3.60;99.90
11764;DHT22;5939;56.522;14.950;2023-11-18T03:30:06;3.60;99.90
11764;DHT22;5939;56.522;14.950;2023-11-18T03:32:37;3.60;99.90
11764;DHT22;5939;56.522;14.950;2023-11-18T03:35:03;3.60;99.90
11764;DHT22;5939;56.522;14.950;2023-11-18T03:37:32;3.60;99.90
11764;DHT22;5939;56.522;14.950;2023-11-18T03:39:58;3.60;99.90
11764;DHT22;5939;56.522;14.950;2023-11-18T03:42:23;3.60;99.90
11764;DHT22;5939;56.522;14.950;2023-11-18T03:44:49;3.70;99.90
11764;DHT22;5939;56.522;14.950;2023-11-18T03:47:15;3.60;99.90
11764;DHT22;5939;56.522;14.950;2023-11-18T03:49:41;3.60;99.90
11764;DHT22;5939;56.522;14.950;2023-11-18T03:52:07;3.60;99.90
11764;DHT22;5939;56.522;14.950;2023-11-18T03:54:32;3.60;99.90
11764;DHT22;5939;56.522;14.950;2023-11-18T03:56:58;3.60;99.90
11764;DHT22;5939;56.522;14.950;2023-11-18T03:59:25;3.60;99.90
11764;DHT22;5939;56.522;14.950;2023-11-18T04:01:50;3.60;99.90
11764;DHT22;5939;56.522;14.950;2023-11-18T04:04:17;3.60;99.90
11764;DHT22;5939;56.522;14.950;2023-11-18T04:06:43;3.60;99.90
11764;DHT22;5939;56.522;14.950;2023-11-18T04:09:09;3.60;99.90
11764;DHT22;5939;56.522;14.950;2023-11-18T04:11:36;3.60;99.90
11764;DHT22;5939;56.522;14.950;2023-11-18T04:14:01;3.60;99.90
11764;DHT22;5939;56.522;14.950;2023-11-18T04:16:29;3.70;99.90
11764;DHT22;5939;56.522;14.950;2023-11-18T04:18:55;3.60;99.90
11764;DHT22;5939;56.522;14.950;2023-11-18T04:21:21;3.60;99.90
11764;DHT22;5939;56.522;14.950;2023-11-18T04:23:47;3.60;99.90
11764;DHT22;5939;56.522;14.950;2023-11-18T04:26:13;3.60;99.90
11764;DHT22;5939;56.522;14.950;2023-11-18T04:28:38;3.60;99.90
11764;DHT22;5939;56.522;14.950;2023-11-18T04:31:05;3.60;99.90
11764;DHT22;5939;56.522;14.950;2023-11-18T04:33:31;3.60;99.90
11764;DHT22;5939;56.522;14.950;2023-11-18T04:35:58;3.60;99.90
11764;DHT22;5939;56.522;14.950;2023-11-18T04:38:24;3.60;99.90
11764;DHT22;5939;56.522;14.950;2023-11-18T04:40:51;3.60;99.90
11764;DHT22;5939;56.522;14.950;2023-11-18T04:43:18;3.60;99.90
11764;DHT22;5939;56.522;14.950;2023-11-18T04:45:44;3.60;99.90
11764;DHT22;5939;56.522;14.950;2023-11-18T04:48:09;3.60;99.90
11764;DHT22;5939;56.522;14.950;2023-11-18T04:50:35;3.60;99.90
11764;DHT22;5939;56.522;14.950;2023-11-18T04:53:01;3.60;99.90
11764;DHT22;5939;56.522;14.950;2023-11-18T04:55:28;3.60;99.90
11764;DHT22;5939;56.522;14.950;2023-11-18T04:57:54;3.60;99.90
11764;DHT22;5939;56.522;14.950;2023-11-18T05:00:20;3.60;99.90
11764;DHT22;5939;56.522;14.950;2023-11-18T05:02:47;3.60;99.90
11764;DHT22;5939;56.522;14.950;2023-11-18T05:05:14;3.60;99.90
11764;DHT22;5939;56.522;14.950;2023-11-18T05:07:41;3.60;99.90
11764;DHT22;5939;56.522;14.950;2023-11-18T05:10:08;3.60;99.90
11764;DHT22;5939;56.522;14.950;2023-11-18T05:12:35;3.60;99.90
11764;DHT22;5939;56.522;14.950;2023-11-18T05:15:01;3.60;99.90
11764;DHT22;5939;56.522;14.950;2023-11-18T05:17:29;3.60;99.90
11764;DHT22;5939;56.522;14.950;2023-11-18T05:19:55;3.60;99.90
11764;DHT22;5939;56.522;14.950;2023-11-18T05:22:21;3.60;99.90
11764;DHT22;5939;56.522;14.950;2023-11-18T05:24:47;3.60;99.90
11764;DHT22;5939;56.522;14.950;2023-11-18T05:27:14;3.60;99.90
11764;DHT22;5939;56.522;14.950;2023-11-18T05:29:40;3.60;99.90
11764;DHT22;5939;56.522;14.950;2023-11-18T05:32:12;3.60;99.90
11764;DHT22;5939;56.522;14.950;2023-11-18T05:34:37;3.60;99.90
11764;DHT22;5939;56.522;14.950;2023-11-18T05:37:03;3.60;99.90
11764;DHT22;5939;56.522;14.950;2023-11-18T05:39:29;3.60;99.90
11764;DHT22;5939;56.522;14.950;2023-11-18T05:41:57;3.60;99.90
11764;DHT22;5939;56.522;14.950;2023-11-18T05:44:23;3.60;99.90
11764;DHT22;5939;56.522;14.950;2023-11-18T05:46:59;3.60;99.90
11764;DHT22;5939;56.522;14.950;2023-11-18T05:49:25;3.60;99.90
11764;DHT22;5939;56.522;14.950;2023-11-18T05:51:51;3.60;99.90
11764;DHT22;5939;56.522;14.950;2023-11-18T05:54:17;3.60;99.90
11764;DHT22;5939;56.522;14.950;2023-11-18T05:56:43;3.60;99.90
11764;DHT22;5939;56.522;14.950;2023-11-18T05:59:09;3.60;99.90
11764;DHT22;5939;56.522;14.950;2023-11-18T06:01:36;3.60;99.90
11764;DHT22;5939;56.522;14.950;2023-11-18T06:04:03;3.60;99.90
11764;DHT22;5939;56.522;14.950;2023-11-18T06:06:29;3.60;99.90
11764;DHT22;5939;56.522;14.950;2023-11-18T06:08:57;3.60;99.90
11764;DHT22;5939;56.522;14.950;2023-11-18T06:11:30;3.60;99.90
11764;DHT22;5939;56.522;14.950;2023-11-18T06:13:57;3.60;99.90
11764;DHT22;5939;56.522;14.950;2023-11-18T06:16:24;3.60;99.90
11764;DHT22;5939;56.522;14.950;2023-11-18T06:18:55;3.60;99.90
11764;DHT22;5939;56.522;14.950;2023-11-18T06:21:23;3.60;99.90
11764;DHT22;5939;56.522;14.950;2023-11-18T06:23:50;3.60;99.90
11764;DHT22;5939;56.522;14.950;2023-11-18T06:26:16;3.60;99.90
11764;DHT22;5939;56.522;14.950;2023-11-18T06:28:44;3.60;99.90
11764;DHT22;5939;56.522;14.950;2023-11-18T06:31:10;3.60;99.90
11764;DHT22;5939;56.522;14.950;2023-11-18T06:33:41;3.60;99.90
11764;DHT22;5939;56.522;14.950;2023-11-18T06:36:18;3.60;99.90
11764;DHT22;5939;56.522;14.950;2023-11-18T06:38:48;3.60;99.90
11764;DHT22;5939;56.522;14.950;2023-11-18T06:41:16;3.60;99.90
11764;DHT22;5939;56.522;14.950;2023-11-18T06:43:44;3.50;99.90
11764;DHT22;5939;56.522;14.950;2023-11-18T06:48:54;3.50;99.90
11764;DHT22;5939;56.522;14.950;2023-11-18T06:51:21;3.50;99.90
11764;DHT22;5939;56.522;14.950;2023-11-18T06:53:57;3.50;99.90
11764;DHT22;5939;56.522;14.950;2023-11-18T06:56:23;3.50;99.90
11764;DHT22;5939;56.522;14.950;2023-11-18T06:58:50;3.50;99.90
11764;DHT22;5939;56.522;14.950;2023-11-18T07:01:16;3.50;99.90
11764;DHT22;5939;56.522;14.950;2023-11-18T07:03:48;3.50;99.90
11764;DHT22;5939;56.522;14.950;2023-11-18T07:06:18;3.50;99.90
11764;DHT22;5939;56.522;14.950;2023-11-18T07:08:52;3.50;99.90
11764;DHT22;5939;56.522;14.950;2023-11-18T07:11:19;3.50;99.90
11764;DHT22;5939;56.522;14.950;2023-11-18T07:13:48;3.50;99.90
11764;DHT22;5939;56.522;14.950;2023-11-18T07:16:25;3.50;99.90
11764;DHT22;5939;56.522;14.950;2023-11-18T07:18:51;3.50;99.90
11764;DHT22;5939;56.522;14.950;2023-11-18T07:21:17;3.50;99.90
11764;DHT22;5939;56.522;14.950;2023-11-18T07:23:43;3.50;99.90
11764;DHT22;5939;56.522;14.950;2023-11-18T07:26:08;3.50;99.90
11764;DHT22;5939;56.522;14.950;2023-11-18T07:28:39;3.50;99.90
11764;DHT22;5939;56.522;14.950;2023-11-18T07:31:05;3.50;99.90
11764;DHT22;5939;56.522;14.950;2023-11-18T07:33:31;3.50;99.90
11764;DHT22;5939;56.522;14.950;2023-11-18T07:35:58;3.50;99.90
11764;DHT22;5939;56.522;14.950;2023-11-18T07:38:23;3.40;99.90
11764;DHT22;5939;56.522;14.950;2023-11-18T07:40:49;3.40;99.90
11764;DHT22;5939;56.522;14.950;2023-11-18T07:43:18;3.50;99.90
11764;DHT22;5939;56.522;14.950;2023-11-18T07:45:47;3.40;99.90
11764;DHT22;5939;56.522;14.950;2023-11-18T07:48:16;3.40;99.90
11764;DHT22;5939;56.522;14.950;2023-11-18T07:50:43;3.40;99.90
11764;DHT22;5939;56.522;14.950;2023-11-18T07:53:15;3.40;99.90
11764;DHT22;5939;56.522;14.950;2023-11-18T07:55:41;3.40;99.90
11764;DHT22;5939;56.522;14.950;2023-11-18T07:58:10;3.40;99.90
11764;DHT22;5939;56.522;14.950;2023-11-18T08:00:40;3.40;99.90
11764;DHT22;5939;56.522;14.950;2023-11-18T08:03:06;3.40;99.90
11764;DHT22;5939;56.522;14.950;2023-11-18T08:05:42;3.40;99.90
11764;DHT22;5939;56.522;14.950;2023-11-18T08:08:14;3.40;99.90
11764;DHT22;5939;56.522;14.950;2023-11-18T08:10:43;3.40;99.90
11764;DHT22;5939;56.522;14.950;2023-11-18T08:13:10;3.40;99.90
11764;DHT22;5939;56.522;14.950;2023-11-18T08:15:41;3.50;99.90
11764;DHT22;5939;56.522;14.950;2023-11-18T08:18:07;3.40;99.90
11764;DHT22;5939;56.522;14.950;2023-11-18T08:20:35;3.40;99.90
11764;DHT22;5939;56.522;14.950;2023-11-18T08:23:01;3.40;99.90
11764;DHT22;5939;56.522;14.950;2023-11-18T08:25:27;3.40;99.90
11764;DHT22;5939;56.522;14.950;2023-11-18T08:27:52;3.50;99.90
11764;DHT22;5939;56.522;14.950;2023-11-18T08:30:18;3.40;99.90
11764;DHT22;5939;56.522;14.950;2023-11-18T08:32:46;3.50;99.90
11764;DHT22;5939;56.522;14.950;2023-11-18T08:35:15;3.40;99.90
11764;DHT22;5939;56.522;14.950;2023-11-18T08:37:44;3.50;99.90
11764;DHT22;5939;56.522;14.950;2023-11-18T08:40:11;3.50;99.90
11764;DHT22;5939;56.522;14.950;2023-11-18T08:42:51;3.50;99.90
11764;DHT22;5939;56.522;14.950;2023-11-18T08:45:25;3.50;99.90
11764;DHT22;5939;56.522;14.950;2023-11-18T08:48:03;3.50;99.90
11764;DHT22;5939;56.522;14.950;2023-11-18T08:50:37;3.50;99.90
11764;DHT22;5939;56.522;14.950;2023-11-18T08:53:05;3.50;99.90
11764;DHT22;5939;56.522;14.950;2023-11-18T08:55:32;3.50;99.90
11764;DHT22;5939;56.522;14.950;2023-11-18T08:58:05;3.50;99.90
11764;DHT22;5939;56.522;14.950;2023-11-18T09:00:42;3.50;99.90
11764;DHT22;5939;56.522;14.950;2023-11-18T09:03:28;3.50;99.90
11764;DHT22;5939;56.522;14.950;2023-11-18T09:05:58;3.50;99.90
11764;DHT22;5939;56.522;14.950;2023-11-18T09:08:28;3.50;99.90
11764;DHT22;5939;56.522;14.950;2023-11-18T09:10:56;3.50;99.90
11764;DHT22;5939;56.522;14.950;2023-11-18T09:13:25;3.50;99.90
11764;DHT22;5939;56.522;14.950;2023-11-18T09:16:05;3.50;99.90
11764;DHT22;5939;56.522;14.950;2023-11-18T09:18:35;3.50;99.90
11764;DHT22;5939;56.522;14.950;2023-11-18T09:21:02;3.50;99.90
11764;DHT22;5939;56.522;14.950;2023-11-18T09:23:29;3.50;99.90
11764;DHT22;5939;56.522;14.950;2023-11-18T09:25:57;3.60;99.90
11764;DHT22;5939;56.522;14.950;2023-11-18T09:28:27;3.60;99.90
11764;DHT22;5939;56.522;14.950;2023-11-18T09:30:58;3.60;99.90
11764;DHT22;5939;56.522;14.950;2023-11-18T09:33:26;3.60;99.90
11764;DHT22;5939;56.522;14.950;2023-11-18T09:36:00;3.60;99.90
11764;DHT22;5939;56.522;14.950;2023-11-18T09:38:30;3.60;99.90
11764;DHT22;5939;56.522;14.950;2023-11-18T09:40:57;3.60;99.90
11764;DHT22;5939;56.522;14.950;2023-11-18T09:43:26;3.70;99.90
11764;DHT22;5939;56.522;14.950;2023-11-18T09:45:55;3.70;99.90
11764;DHT22;5939;56.522;14.950;2023-11-18T09:48:21;3.70;99.90
11764;DHT22;5939;56.522;14.950;2023-11-18T09:50:52;3.70;99.90
11764;DHT22;5939;56.522;14.950;2023-11-18T09:53:18;3.70;99.90
11764;DHT22;5939;56.522;14.950;2023-11-18T09:56:04;3.70;99.90
11764;DHT22;5939;56.522;14.950;2023-11-18T09:58:42;3.70;99.90
11764;DHT22;5939;56.522;14.950;2023-11-18T10:01:15;3.70;99.90
11764;DHT22;5939;56.522;14.950;2023-11-18T10:03:44;3.80;99.90
11764;DHT22;5939;56.522;14.950;2023-11-18T10:06:12;3.80;99.90
11764;DHT22;5939;56.522;14.950;2023-11-18T10:08:40;3.80;99.90
11764;DHT22;5939;56.522;14.950;2023-11-18T10:11:06;3.80;99.90
11764;DHT22;5939;56.522;14.950;2023-11-18T10:13:35;3.90;99.90
11764;DHT22;5939;56.522;14.950;2023-11-18T10:16:07;3.90;99.90
11764;DHT22;5939;56.522;14.950;2023-11-18T10:18:32;3.90;99.90
11764;DHT22;5939;56.522;14.950;2023-11-18T10:21:02;3.90;99.90
11764;DHT22;5939;56.522;14.950;2023-11-18T10:23:36;3.90;99.90
11764;DHT22;5939;56.522;14.950;2023-11-18T10:26:03;3.90;99.90
11764;DHT22;5939;56.522;14.950;2023-11-18T10:28:31;4.00;99.90
11764;DHT22;5939;56.522;14.950;2023-11-18T10:31:03;4.00;99.90
11764;DHT22;5939;56.522;14.950;2023-11-18T10:33:37;4.00;99.90
11764;DHT22;5939;56.522;14.950;2023-11-18T10:36:04;4.00;99.90
11764;DHT22;5939;56.522;14.950;2023-11-18T10:38:39;4.00;99.90
11764;DHT22;5939;56.522;14.950;2023-11-18T10:41:09;4.00;99.90
11764;DHT22;5939;56.522;14.950;2023-11-18T10:43:35;4.00;99.90
11764;DHT22;5939;56.522;14.950;2023-11-18T10:46:08;4.00;99.90
11764;DHT22;5939;56.522;14.950;2023-11-18T10:48:48;4.00;99.90
11764;DHT22;5939;56.522;14.950;2023-11-18T10:51:20;4.00;99.90
11764;DHT22;5939;56.522;14.950;2023-11-18T10:53:50;4.00;99.90
11764;DHT22;5939;56.522;14.950;2023-11-18T10:56:24;4.00;99.90
11764;DHT22;5939;56.522;14.950;2023-11-18T10:59:04;4.00;99.90
11764;DHT22;5939;56.522;14.950;2023-11-18T11:01:37;4.00;99.90
11764;DHT22;5939;56.522;14.950;2023-11-18T11:04:09;4.00;99.90
11764;DHT22;5939;56.522;14.950;2023-11-18T11:06:43;4.00;99.90
11764;DHT22;5939;56.522;14.950;2023-11-18T11:09:11;4.10;99.90
11764;DHT22;5939;56.522;14.950;2023-11-18T11:11:49;4.10;99.90
11764;DHT22;5939;56.522;14.950;2023-11-18T11:14:17;4.10;99.90
11764;DHT22;5939;56.522;14.950;2023-11-18T11:16:50;4.10;99.90
11764;DHT22;5939;56.522;14.950;2023-11-18T11:19:34;4.10;99.90
11764;DHT22;5939;56.522;14.950;2023-11-18T11:22:10;4.10;99.90
11764;DHT22;5939;56.522;14.950;2023-11-18T11:27:43;4.10;99.90
11764;DHT22;5939;56.522;14.950;2023-11-18T11:30:23;4.10;99.90
11764;DHT22;5939;56.522;14.950;2023-11-18T11:35:41;4.10;99.90
11764;DHT22;5939;56.522;14.950;2023-11-18T11:38:12;4.10;99.90
11764;DHT22;5939;56.522;14.950;2023-11-18T11:40:41;4.10;99.90
11764;DHT22;5939;56.522;14.950;2023-11-18T11:43:09;4.10;99.90
11764;DHT22;5939;56.522;14.950;2023-11-18T11:45:36;4.10;99.90
11764;DHT22;5939;56.522;14.950;2023-11-18T11:48:05;4.10;99.90
11764;DHT22;5939;56.522;14.950;2023-11-18T11:53:42;4.10;99.90
11764;DHT22;5939;56.522;14.950;2023-11-18T11:56:11;4.00;99.90
11764;DHT22;5939;56.522;14.950;2023-11-18T11:58:45;4.10;99.90
11764;DHT22;5939;56.522;14.950;2023-11-18T12:01:32;4.10;99.90
11764;DHT22;5939;56.522;14.950;2023-11-18T12:04:09;4.00;99.90
11764;DHT22;5939;56.522;14.950;2023-11-18T12:06:47;4.00;99.90
11764;DHT22;5939;56.522;14.950;2023-11-18T12:09:13;4.00;99.90
11764;DHT22;5939;56.522;14.950;2023-11-18T12:11:46;4.00;99.90
11764;DHT22;5939;56.522;14.950;2023-11-18T12:14:14;4.00;99.90
11764;DHT22;5939;56.522;14.950;2023-11-18T12:17:06;4.00;99.90
11764;DHT22;5939;56.522;14.950;2023-11-18T12:19:39;4.00;99.90
11764;DHT22;5939;56.522;14.950;2023-11-18T12:22:20;4.00;99.90
11764;DHT22;5939;56.522;14.950;2023-11-18T12:32:58;4.00;99.90
11764;DHT22;5939;56.522;14.950;2023-11-18T12:38:30;4.00;99.90
11764;DHT22;5939;56.522;14.950;2023-11-18T12:41:01;4.00;99.90
11764;DHT22;5939;56.522;14.950;2023-11-18T12:43:46;4.00;99.90
11764;DHT22;5939;56.522;14.950;2023-11-18T12:46:48;4.00;99.90
11764;DHT22;5939;56.522;14.950;2023-11-18T12:49:22;4.00;99.90
11764;DHT22;5939;56.522;14.950;2023-11-18T12:51:52;4.00;99.90
11764;DHT22;5939;56.522;14.950;2023-11-18T12:54:22;4.00;99.90
11764;DHT22;5939;56.522;14.950;2023-11-18T12:56:51;3.90;99.90
11764;DHT22;5939;56.522;14.950;2023-11-18T12:59:19;4.00;99.90
11764;DHT22;5939;56.522;14.950;2023-11-18T13:01:52;4.00;99.90
11764;DHT22;5939;56.522;14.950;2023-11-18T13:04:22;4.00;99.90
11764;DHT22;5939;56.522;14.950;2023-11-18T13:06:52;4.00;99.90
11764;DHT22;5939;56.522;14.950;2023-11-18T13:09:18;3.90;99.90
11764;DHT22;5939;56.522;14.950;2023-11-18T13:12:03;4.00;99.90
11764;DHT22;5939;56.522;14.950;2023-11-18T13:14:32;3.90;99.90
11764;DHT22;5939;56.522;14.950;2023-11-18T13:17:08;3.90;99.90
11764;DHT22;5939;56.522;14.950;2023-11-18T13:19:34;3.90;99.90
11764;DHT22;5939;56.522;14.950;2023-11-18T13:22:04;3.90;99.90
11764;DHT22;5939;56.522;14.950;2023-11-18T13:24:36;3.90;99.90
11764;DHT22;5939;56.522;14.950;2023-11-18T13:27:05;3.90;99.90
11764;DHT22;5939;56.522;14.950;2023-11-18T13:29:33;3.90;99.90
11764;DHT22;5939;56.522;14.950;2023-11-18T13:32:00;3.90;99.90
11764;DHT22;5939;56.522;14.950;2023-11-18T13:34:30;3.90;99.90
11764;DHT22;5939;56.522;14.950;2023-11-18T13:36:58;3.90;99.90
11764;DHT22;5939;56.522;14.950;2023-11-18T13:39:25;3.90;99.90
11764;DHT22;5939;56.522;14.950;2023-11-18T13:41:54;3.90;99.90
11764;DHT22;5939;56.522;14.950;2023-11-18T13:44:36;3.90;99.90
11764;DHT22;5939;56.522;14.950;2023-11-18T13:47:07;3.90;99.90
11764;DHT22;5939;56.522;14.950;2023-11-18T13:49:33;3.90;99.90
11764;DHT22;5939;56.522;14.950;2023-11-18T13:52:02;3.90;99.90
11764;DHT22;5939;56.522;14.950;2023-11-18T13:54:32;3.90;99.90
11764;DHT22;5939;56.522;14.950;2023-11-18T13:56:58;3.90;99.90
11764;DHT22;5939;56.522;14.950;2023-11-18T13:59:27;3.90;99.90
11764;DHT22;5939;56.522;14.950;2023-11-18T14:01:58;3.90;99.90
11764;DHT22;5939;56.522;14.950;2023-11-18T14:04:27;3.90;99.90
11764;DHT22;5939;56.522;14.950;2023-11-18T14:06:57;3.80;99.90
11764;DHT22;5939;56.522;14.950;2023-11-18T14:09:23;3.80;99.90
11764;DHT22;5939;56.522;14.950;2023-11-18T14:11:53;3.80;99.90
11764;DHT22;5939;56.522;14.950;2023-11-18T14:14:22;3.90;99.90
11764;DHT22;5939;56.522;14.950;2023-11-18T14:16:48;3.80;99.90
11764;DHT22;5939;56.522;14.950;2023-11-18T14:19:15;3.80;99.90
11764;DHT22;5939;56.522;14.950;2023-11-18T14:21:41;3.80;99.90
11764;DHT22;5939;56.522;14.950;2023-11-18T14:24:10;3.80;99.90
11764;DHT22;5939;56.522;14.950;2023-11-18T14:26:37;3.80;99.90
11764;DHT22;5939;56.522;14.950;2023-11-18T14:29:05;3.80;99.90
11764;DHT22;5939;56.522;14.950;2023-11-18T14:31:32;3.80;99.90
11764;DHT22;5939;56.522;14.950;2023-11-18T14:33:59;3.80;99.90
11764;DHT22;5939;56.522;14.950;2023-11-18T14:36:28;3.80;99.90
11764;DHT22;5939;56.522;14.950;2023-11-18T14:38:54;3.80;99.90
11764;DHT22;5939;56.522;14.950;2023-11-18T14:41:20;3.70;99.90
11764;DHT22;5939;56.522;14.950;2023-11-18T14:43:50;3.70;99.90
11764;DHT22;5939;56.522;14.950;2023-11-18T14:46:16;3.80;99.90
11764;DHT22;5939;56.522;14.950;2023-11-18T14:48:41;3.80;99.90
11764;DHT22;5939;56.522;14.950;2023-11-18T14:51:08;3.80;99.90
11764;DHT22;5939;56.522;14.950;2023-11-18T14:53:33;3.70;99.90
11764;DHT22;5939;56.522;14.950;2023-11-18T14:56:00;3.70;99.90
11764;DHT22;5939;56.522;14.950;2023-11-18T14:58:26;3.70;99.90
11764;DHT22;5939;56.522;14.950;2023-11-18T15:00:51;3.70;99.90
11764;DHT22;5939;56.522;14.950;2023-11-18T15:03:17;3.70;99.90
11764;DHT22;5939;56.522;14.950;2023-11-18T15:05:43;3.70;99.90
11764;DHT22;5939;56.522;14.950;2023-11-18T15:08:11;3.70;99.90
11764;DHT22;5939;56.522;14.950;2023-11-18T15:10:39;3.70;99.90
11764;DHT22;5939;56.522;14.950;2023-11-18T15:13:07;3.70;99.90
11764;DHT22;5939;56.522;14.950;2023-11-18T15:15:38;3.60;99.90
11764;DHT22;5939;56.522;14.950;2023-11-18T15:18:05;3.60;99.90
11764;DHT22;5939;56.522;14.950;2023-11-18T15:20:34;3.60;99.90
11764;DHT22;5939;56.522;14.950;2023-11-18T15:23:01;3.60;99.90
11764;DHT22;5939;56.522;14.950;2023-11-18T15:25:27;3.60;99.90
11764;DHT22;5939;56.522;14.950;2023-11-18T15:27:52;3.60;99.90
11764;DHT22;5939;56.522;14.950;2023-11-18T15:30:18;3.60;99.90
11764;DHT22;5939;56.522;14.950;2023-11-18T15:32:45;3.60;99.90
11764;DHT22;5939;56.522;14.950;2023-11-18T15:35:12;3.60;99.90
11764;DHT22;5939;56.522;14.950;2023-11-18T15:37:39;3.60;99.90
11764;DHT22;5939;56.522;14.950;2023-11-18T15:40:10;3.50;99.90
11764;DHT22;5939;56.522;14.950;2023-11-18T15:42:42;3.50;99.90
11764;DHT22;5939;56.522;14.950;2023-11-18T15:45:10;3.50;99.90
11764;DHT22;5939;56.522;14.950;2023-11-18T15:47:38;3.50;99.90
11764;DHT22;5939;56.522;14.950;2023-11-18T15:50:05;3.50;99.90
11764;DHT22;5939;56.522;14.950;2023-11-18T15:52:31;3.50;99.90
11764;DHT22;5939;56.522;14.950;2023-11-18T15:55:00;3.50;99.90
11764;DHT22;5939;56.522;14.950;2023-11-18T15:57:26;3.50;99.90
11764;DHT22;5939;56.522;14.950;2023-11-18T15:59:52;3.50;99.90
11764;DHT22;5939;56.522;14.950;2023-11-18T16:02:18;3.50;99.90
11764;DHT22;5939;56.522;14.950;2023-11-18T16:04:43;3.40;99.90
11764;DHT22;5939;56.522;14.950;2023-11-18T16:07:09;3.40;99.90
11764;DHT22;5939;56.522;14.950;2023-11-18T16:09:35;3.40;99.90
11764;DHT22;5939;56.522;14.950;2023-11-18T16:12:00;3.40;99.90
11764;DHT22;5939;56.522;14.950;2023-11-18T16:14:26;3.40;99.90
11764;DHT22;5939;56.522;14.950;2023-11-18T16:16:52;3.40;99.90